Time;durP1;ratioP1;P1;durP2;ratioP2;P2;SDS_P1;SDS_P2;PMS_P1;PMS_P2;Temp;Humidity;BMP_temperature;BMP_pressure;BME280_temperature;BME280_humidity;BME280_pressure;Samples;Min_cycle;Max_cycle;Signal;HPM_P1;HPM_P2
2023/07/30 00:00:52;;;;;;;1.92;0.73;;;22.70;99.90;;;;;;6180089;23;20124;-81
2023/07/30 00:03:22;;;;;;;1.70;0.70;;;22.70;99.90;;;;;;6223137;23;20025;-81
2023/07/30 00:05:53;;;;;;;2.03;0.82;;;22.70;99.90;;;;;;6190253;23;20029;-81
2023/07/30 00:08:21;;;;;;;2.05;0.88;;;22.70;99.90;;;;;;6194168;23;20035;-81
2023/07/30 00:10:49;;;;;;;1.65;0.93;;;22.70;99.90;;;;;;6193407;23;20021;-81
2023/07/30 00:13:16;;;;;;;3.63;1.00;;;22.70;99.90;;;;;;6190015;23;20020;-81
2023/07/30 00:15:46;;;;;;;2.38;0.80;;;22.60;99.90;;;;;;6205916;23;20381;-81
2023/07/30 00:18:14;;;;;;;1.92;0.77;;;22.70;99.90;;;;;;6246677;23;20020;-81
2023/07/30 00:20:43;;;;;;;1.52;0.90;;;22.60;99.90;;;;;;6254706;23;20051;-81
2023/07/30 00:23:12;;;;;;;2.05;0.73;;;22.60;99.90;;;;;;6235032;23;20130;-81
2023/07/30 00:25:39;;;;;;;3.35;0.75;;;22.60;99.90;;;;;;6232121;23;20346;-81
2023/07/30 00:28:06;;;;;;;2.45;1.00;;;22.70;99.90;;;;;;6233149;23;20058;-81
2023/07/30 00:30:33;;;;;;;5.95;1.30;;;22.60;99.90;;;;;;6236513;23;20040;-81
2023/07/30 00:33:01;;;;;;;2.20;0.95;;;22.60;99.90;;;;;;6250714;23;20043;-81
2023/07/30 00:35:28;;;;;;;1.92;0.93;;;22.60;99.90;;;;;;6251876;23;20526;-82
2023/07/30 00:37:55;;;;;;;3.03;1.15;;;22.60;99.90;;;;;;6226993;23;20020;-82
2023/07/30 00:40:23;;;;;;;1.75;0.85;;;22.60;99.90;;;;;;6249053;23;20495;-82
2023/07/30 00:42:50;;;;;;;2.03;1.00;;;22.60;99.90;;;;;;6254315;23;20050;-82
2023/07/30 00:45:17;;;;;;;2.42;0.98;;;22.60;99.90;;;;;;6243411;23;20158;-82
2023/07/30 00:47:45;;;;;;;2.53;0.88;;;22.50;99.90;;;;;;6223773;23;20103;-82
2023/07/30 00:50:14;;;;;;;2.17;0.98;;;22.50;99.90;;;;;;6250581;23;20023;-82
2023/07/30 00:52:43;;;;;;;2.67;0.95;;;22.50;99.90;;;;;;6222752;23;20044;-82
2023/07/30 00:55:11;;;;;;;4.00;1.08;;;22.50;99.90;;;;;;6223352;23;20407;-82
2023/07/30 00:57:39;;;;;;;2.72;1.15;;;22.60;99.90;;;;;;6212618;23;20167;-80
2023/07/30 01:00:09;;;;;;;3.83;0.70;;;22.50;99.90;;;;;;6227154;23;20520;-81
2023/07/30 01:02:38;;;;;;;1.42;0.60;;;22.50;99.90;;;;;;6219622;23;20028;-81
2023/07/30 01:05:08;;;;;;;1.70;1.13;;;22.50;99.90;;;;;;6244801;23;20075;-81
2023/07/30 01:07:36;;;;;;;1.38;0.55;;;22.60;99.90;;;;;;6223010;22;20114;-81
2023/07/30 01:10:05;;;;;;;1.65;0.65;;;22.60;99.90;;;;;;6228801;22;20019;-81
2023/07/30 01:12:34;;;;;;;2.67;0.85;;;22.60;99.90;;;;;;6200497;22;20088;-81
2023/07/30 01:15:03;;;;;;;2.85;0.70;;;22.60;99.90;;;;;;6254518;22;20024;-81
2023/07/30 01:17:33;;;;;;;3.88;1.10;;;22.60;99.90;;;;;;6253079;22;20023;-81
2023/07/30 01:20:00;;;;;;;1.15;0.68;;;22.60;99.90;;;;;;6255162;22;20610;-81
2023/07/30 01:22:27;;;;;;;1.42;0.52;;;22.50;99.90;;;;;;6218015;22;20024;-81
2023/07/30 01:24:56;;;;;;;2.38;0.93;;;22.50;99.90;;;;;;6244272;22;20016;-81
2023/07/30 01:27:27;;;;;;;1.63;0.57;;;22.50;99.90;;;;;;6215791;22;20019;-81
2023/07/30 01:30:11;;;;;;;2.38;0.93;;;22.50;99.80;;;;;;6242002;22;20047;-81
2023/07/30 01:32:40;;;;;;;2.97;0.50;;;22.40;98.30;;;;;;6242139;22;20023;-80
2023/07/30 01:35:09;;;;;;;2.35;0.30;;;22.50;97.50;;;;;;6162347;22;20101;-80
2023/07/30 01:37:41;;;;;;;1.75;0.70;;;22.50;96.60;;;;;;6240010;22;20402;-80
2023/07/30 01:40:09;;;;;;;1.40;0.40;;;22.50;96.20;;;;;;6200430;22;20016;-81
2023/07/30 01:42:37;;;;;;;1.10;0.40;;;22.50;96.10;;;;;;6234186;22;20043;-81
2023/07/30 01:45:05;;;;;;;1.95;0.60;;;22.60;95.90;;;;;;6259807;22;20024;-81
2023/07/30 01:47:33;;;;;;;2.95;0.88;;;22.60;96.10;;;;;;6229077;22;20023;-81
2023/07/30 01:50:07;;;;;;;1.40;0.40;;;22.60;96.30;;;;;;6268291;22;20099;-81
2023/07/30 01:52:34;;;;;;;2.00;0.30;;;22.60;96.30;;;;;;6242692;22;20012;-81
2023/07/30 01:55:02;;;;;;;3.40;0.50;;;22.70;96.80;;;;;;6263725;22;20016;-81
2023/07/30 01:57:29;;;;;;;1.08;0.40;;;22.70;96.60;;;;;;6236182;22;20066;-81
2023/07/30 01:59:56;;;;;;;2.63;0.50;;;22.60;97.30;;;;;;6230453;22;20452;-81
2023/07/30 02:02:24;;;;;;;1.13;0.52;;;22.60;97.30;;;;;;6225596;23;20013;-81
2023/07/30 02:04:52;;;;;;;0.90;0.50;;;22.60;97.10;;;;;;6183154;23;20012;-81
2023/07/30 02:07:19;;;;;;;1.17;0.50;;;22.60;96.90;;;;;;6225616;23;20044;-81
2023/07/30 02:09:46;;;;;;;1.05;0.40;;;22.60;96.60;;;;;;6174956;23;20055;-81
2023/07/30 02:12:15;;;;;;;1.10;0.40;;;22.60;96.90;;;;;;6203614;23;20016;-81
2023/07/30 02:14:43;;;;;;;0.90;0.50;;;22.50;96.90;;;;;;6157804;23;20032;-81
2023/07/30 02:17:10;;;;;;;2.03;0.80;;;22.50;97.00;;;;;;6201898;23;20601;-81
2023/07/30 02:19:38;;;;;;;1.27;0.50;;;22.50;96.90;;;;;;6174795;23;20116;-81
2023/07/30 02:22:05;;;;;;;3.70;0.60;;;22.50;96.80;;;;;;6200815;23;20024;-81
2023/07/30 02:24:33;;;;;;;0.73;0.32;;;22.50;97.10;;;;;;6223853;23;20031;-81
2023/07/30 02:27:00;;;;;;;1.20;0.40;;;22.40;97.40;;;;;;6228139;23;20021;-81
2023/07/30 02:29:28;;;;;;;1.20;0.40;;;22.40;97.40;;;;;;6201748;23;20012;-81
2023/07/30 02:31:59;;;;;;;1.67;0.40;;;22.40;97.90;;;;;;6198078;23;20021;-81
2023/07/30 02:34:28;;;;;;;1.45;0.40;;;22.40;97.60;;;;;;6198010;23;20012;-81
2023/07/30 02:36:55;;;;;;;2.33;0.40;;;22.40;98.00;;;;;;6200062;23;20023;-81
2023/07/30 02:39:23;;;;;;;1.13;0.65;;;22.30;98.30;;;;;;6190341;22;20054;-81
2023/07/30 02:41:51;;;;;;;1.70;0.70;;;22.30;98.10;;;;;;6233681;22;20030;-81
2023/07/30 02:44:19;;;;;;;1.10;0.43;;;22.30;98.30;;;;;;6292339;22;20015;-81
2023/07/30 02:46:47;;;;;;;2.03;0.65;;;22.30;98.20;;;;;;6239108;22;20024;-81
2023/07/30 02:49:21;;;;;;;1.50;0.40;;;22.30;98.40;;;;;;6198379;23;20051;-81
2023/07/30 02:51:49;;;;;;;2.63;0.40;;;22.30;98.30;;;;;;6168224;23;20021;-81
2023/07/30 02:54:22;;;;;;;0.98;0.38;;;22.30;98.50;;;;;;6168783;23;20361;-81
2023/07/30 02:56:49;;;;;;;2.25;0.50;;;22.30;98.60;;;;;;6170115;23;20024;-81
2023/07/30 02:59:16;;;;;;;1.33;0.50;;;22.30;99.00;;;;;;6171066;23;20024;-81
2023/07/30 03:01:45;;;;;;;0.98;0.50;;;22.20;98.90;;;;;;6171527;23;20035;-81
2023/07/30 03:04:12;;;;;;;2.25;0.55;;;22.30;99.50;;;;;;6144304;23;20025;-81
2023/07/30 03:06:41;;;;;;;1.95;0.85;;;22.30;99.40;;;;;;6171983;23;20599;-81
2023/07/30 03:09:08;;;;;;;2.85;1.30;;;22.20;99.10;;;;;;6146153;23;20025;-81
2023/07/30 03:11:36;;;;;;;2.58;0.43;;;22.20;99.40;;;;;;6172341;23;20027;-81
2023/07/30 03:14:07;;;;;;;2.47;0.77;;;22.30;99.50;;;;;;6152931;23;20031;-81
2023/07/30 03:16:34;;;;;;;3.78;0.82;;;22.20;99.90;;;;;;6149583;23;20028;-81
2023/07/30 03:19:02;;;;;;;1.58;0.60;;;22.20;99.70;;;;;;6149046;23;20032;-81
2023/07/30 03:21:30;;;;;;;3.35;0.80;;;22.20;99.90;;;;;;6178594;23;20017;-81
2023/07/30 03:23:58;;;;;;;1.50;0.68;;;22.20;99.90;;;;;;6262641;22;20042;-81
2023/07/30 03:26:26;;;;;;;1.33;0.65;;;22.20;99.90;;;;;;6242709;22;20024;-81
2023/07/30 03:28:53;;;;;;;1.88;0.70;;;22.10;99.90;;;;;;6237236;22;20016;-81
2023/07/30 03:31:20;;;;;;;3.20;0.47;;;22.10;99.90;;;;;;6237783;22;20044;-81
2023/07/30 03:33:51;;;;;;;1.95;0.50;;;22.10;99.90;;;;;;6241199;22;20012;-81
2023/07/30 03:36:19;;;;;;;1.40;0.85;;;22.10;99.90;;;;;;6241299;22;20348;-81
2023/07/30 03:38:47;;;;;;;1.98;0.50;;;22.10;99.90;;;;;;6262099;22;20473;-81
2023/07/30 03:41:17;;;;;;;1.70;0.65;;;22.20;99.90;;;;;;6264016;22;20422;-81
2023/07/30 03:43:45;;;;;;;2.28;0.80;;;22.20;99.90;;;;;;6238741;22;20022;-81
2023/07/30 03:46:14;;;;;;;2.40;0.90;;;22.20;99.90;;;;;;6268278;22;20066;-81
2023/07/30 03:48:42;;;;;;;3.05;0.73;;;22.20;99.90;;;;;;6242737;22;20022;-81
2023/07/30 03:51:10;;;;;;;1.85;0.60;;;22.20;99.90;;;;;;6267660;22;20016;-81
2023/07/30 03:53:38;;;;;;;2.70;0.68;;;22.20;99.90;;;;;;6268612;22;20024;-81
2023/07/30 03:56:05;;;;;;;0.90;0.43;;;22.20;99.90;;;;;;6241525;22;20023;-81
2023/07/30 03:58:32;;;;;;;1.42;0.73;;;22.20;99.90;;;;;;6264007;22;20309;-81
2023/07/30 04:01:00;;;;;;;2.05;0.65;;;22.20;99.90;;;;;;6263231;22;20053;-81
2023/07/30 04:03:28;;;;;;;1.63;0.63;;;22.20;99.90;;;;;;6241650;22;20023;-81
2023/07/30 04:05:55;;;;;;;1.45;0.77;;;22.20;99.90;;;;;;6241065;22;20023;-81
2023/07/30 04:08:22;;;;;;;3.65;0.63;;;22.20;99.90;;;;;;6196774;23;20021;-81
2023/07/30 04:10:49;;;;;;;1.55;0.52;;;22.20;99.90;;;;;;6149229;23;20013;-81
2023/07/30 04:13:16;;;;;;;2.58;0.77;;;22.20;99.90;;;;;;6198510;23;20025;-81
2023/07/30 04:15:44;;;;;;;3.25;0.50;;;22.30;99.90;;;;;;6142725;23;20044;-81
2023/07/30 04:18:11;;;;;;;4.05;1.05;;;22.30;99.90;;;;;;6117823;23;20021;-81
2023/07/30 04:20:38;;;;;;;1.77;0.93;;;22.30;99.90;;;;;;6141840;23;20018;-81
2023/07/30 04:23:08;;;;;;;3.22;0.95;;;22.30;99.90;;;;;;6116299;23;20540;-81
2023/07/30 04:25:35;;;;;;;2.05;0.77;;;22.30;99.90;;;;;;6116290;23;20017;-81
2023/07/30 04:28:02;;;;;;;1.67;0.80;;;22.30;99.90;;;;;;6138952;23;20434;-81
2023/07/30 04:30:30;;;;;;;2.70;0.43;;;22.40;99.90;;;;;;6166206;23;20580;-81
2023/07/30 04:32:57;;;;;;;1.73;0.80;;;22.40;99.90;;;;;;6117920;23;20036;-81
2023/07/30 04:35:26;;;;;;;1.70;0.70;;;22.40;99.90;;;;;;6145941;23;20022;-82
2023/07/30 04:37:53;;;;;;;2.95;0.50;;;22.40;99.90;;;;;;6148141;23;20025;-82
2023/07/30 04:40:21;;;;;;;2.05;0.80;;;22.40;99.90;;;;;;6146657;23;20025;-82
2023/07/30 04:42:50;;;;;;;1.17;0.70;;;22.40;99.90;;;;;;6140322;23;20052;-81
2023/07/30 04:45:17;;;;;;;1.35;0.60;;;22.40;99.90;;;;;;6175024;23;20031;-81
2023/07/30 04:47:47;;;;;;;1.10;0.45;;;22.50;99.90;;;;;;6174904;23;20028;-81
2023/07/30 04:50:15;;;;;;;3.20;0.88;;;22.50;99.90;;;;;;6198337;23;20021;-81
2023/07/30 04:52:44;;;;;;;1.10;0.60;;;22.50;99.90;;;;;;6213277;22;20015;-81
2023/07/30 04:55:12;;;;;;;3.67;0.85;;;22.50;99.90;;;;;;6262433;22;20016;-81
2023/07/30 04:57:39;;;;;;;2.92;0.80;;;22.60;99.90;;;;;;6205038;22;20024;-82
2023/07/30 05:00:12;;;;;;;1.42;0.75;;;22.70;99.90;;;;;;6259899;22;20402;-82
2023/07/30 05:02:39;;;;;;;2.25;0.75;;;22.70;99.90;;;;;;6230893;22;20047;-82
2023/07/30 05:05:08;;;;;;;2.70;0.93;;;22.70;99.90;;;;;;6258096;22;20023;-82
2023/07/30 05:07:36;;;;;;;2.63;1.30;;;22.70;99.90;;;;;;6261319;22;20023;-82
2023/07/30 05:10:06;;;;;;;2.38;1.00;;;22.70;99.90;;;;;;6199493;23;20476;-81
2023/07/30 05:12:34;;;;;;;1.40;0.52;;;22.70;99.90;;;;;;6202189;23;20031;-82
2023/07/30 05:15:05;;;;;;;4.40;1.00;;;22.80;99.90;;;;;;6197216;23;20027;-81
2023/07/30 05:17:33;;;;;;;1.70;0.90;;;22.80;99.90;;;;;;6196807;23;20021;-82
2023/07/30 05:20:00;;;;;;;2.30;0.88;;;22.80;99.90;;;;;;6191669;23;20020;-82
2023/07/30 05:22:27;;;;;;;2.22;0.95;;;22.80;99.90;;;;;;6188739;23;20412;-82
2023/07/30 05:24:56;;;;;;;1.88;0.93;;;22.90;99.90;;;;;;6128455;23;20028;-82
2023/07/30 05:27:28;;;;;;;3.28;0.68;;;22.90;99.90;;;;;;6101895;23;20081;-82
2023/07/30 05:29:57;;;;;;;3.88;1.38;;;22.90;99.90;;;;;;6125868;23;20319;-82
2023/07/30 05:32:25;;;;;;;5.57;2.85;;;23.00;99.90;;;;;;6095868;23;20013;-83
2023/07/30 05:34:53;;;;;;;4.13;2.80;;;23.00;99.90;;;;;;6071675;23;20061;-82
2023/07/30 05:37:27;;;;;;;6.07;3.13;;;23.00;99.90;;;;;;6093213;23;20482;-83
2023/07/30 05:39:55;;;;;;;3.17;1.70;;;23.00;99.90;;;;;;6093431;23;20032;-83
2023/07/30 05:42:23;;;;;;;4.05;1.40;;;23.10;99.90;;;;;;6151628;23;20021;-83
2023/07/30 05:44:52;;;;;;;4.22;1.88;;;23.10;99.90;;;;;;6126667;23;20072;-83
2023/07/30 05:47:19;;;;;;;4.93;2.33;;;23.20;99.90;;;;;;6153597;23;20060;-83
2023/07/30 05:49:46;;;;;;;3.58;2.13;;;23.20;99.90;;;;;;6149888;23;20032;-83
2023/07/30 05:52:13;;;;;;;3.58;2.05;;;23.20;99.90;;;;;;6149775;23;20032;-83
2023/07/30 05:54:40;;;;;;;3.38;2.17;;;23.20;99.90;;;;;;6149950;23;20044;-83
2023/07/30 05:57:08;;;;;;;4.20;2.33;;;23.20;99.80;;;;;;6211831;22;20020;-83
2023/07/30 05:59:35;;;;;;;6.30;2.03;;;23.20;99.90;;;;;;6219909;22;20039;-82
2023/07/30 06:02:05;;;;;;;2.38;1.80;;;23.20;99.90;;;;;;6240747;22;20027;-83
2023/07/30 06:04:32;;;;;;;3.00;1.40;;;23.30;99.90;;;;;;6240447;22;20451;-83
2023/07/30 06:07:03;;;;;;;3.88;1.27;;;23.30;99.90;;;;;;6215351;22;20381;-83
2023/07/30 06:09:30;;;;;;;3.33;1.00;;;23.40;99.90;;;;;;6241338;22;20031;-83
2023/07/30 06:12:00;;;;;;;4.60;1.00;;;23.40;99.90;;;;;;6215024;22;20602;-82
2023/07/30 06:14:27;;;;;;;3.33;0.70;;;23.40;99.90;;;;;;6218898;22;20067;-82
2023/07/30 06:16:54;;;;;;;6.68;1.17;;;23.50;99.90;;;;;;6217200;22;20047;-83
2023/07/30 06:19:22;;;;;;;2.10;0.93;;;23.50;99.90;;;;;;6241145;22;20337;-83
2023/07/30 06:21:49;;;;;;;3.78;0.68;;;23.60;99.90;;;;;;6215379;22;20034;-83
2023/07/30 06:24:16;;;;;;;3.58;1.20;;;23.60;99.90;;;;;;6215045;22;20142;-82
2023/07/30 06:27:02;;;;;;;2.85;1.00;;;23.70;99.90;;;;;;6238907;22;20017;-83
2023/07/30 06:29:29;;;;;;;1.90;0.85;;;23.70;99.90;;;;;;6238010;22;20420;-82
2023/07/30 06:31:56;;;;;;;3.58;1.35;;;23.80;99.20;;;;;;6214527;22;20448;-82
2023/07/30 06:34:24;;;;;;;2.70;1.10;;;23.80;99.00;;;;;;6239142;22;20016;-82
2023/07/30 06:36:51;;;;;;;2.58;0.90;;;23.90;98.90;;;;;;6238664;22;20074;-82
2023/07/30 06:39:18;;;;;;;4.15;1.00;;;23.90;98.80;;;;;;6239632;22;20024;-83
2023/07/30 06:41:46;;;;;;;2.05;0.98;;;23.90;98.70;;;;;;6214596;22;20138;-83
2023/07/30 06:44:13;;;;;;;3.22;0.70;;;24.00;98.10;;;;;;6216206;22;20568;-83
2023/07/30 06:46:41;;;;;;;3.35;1.05;;;24.10;97.60;;;;;;6217978;22;20047;-82
2023/07/30 06:49:08;;;;;;;2.25;0.93;;;24.10;96.80;;;;;;6240421;22;20023;-83
2023/07/30 06:51:35;;;;;;;2.78;0.70;;;24.20;96.80;;;;;;6215591;22;20024;-82
2023/07/30 06:54:03;;;;;;;1.98;0.98;;;24.20;96.10;;;;;;6241094;22;20132;-83
2023/07/30 06:56:30;;;;;;;3.63;0.90;;;24.30;95.00;;;;;;6240713;22;20103;-81
2023/07/30 06:58:57;;;;;;;2.25;0.80;;;24.50;95.10;;;;;;6218171;22;20019;-82
2023/07/30 07:01:24;;;;;;;1.33;0.63;;;24.90;94.50;;;;;;6218187;22;20027;-82
2023/07/30 07:03:51;;;;;;;1.55;0.73;;;25.50;93.20;;;;;;6216122;22;20019;-82
2023/07/30 07:06:19;;;;;;;2.25;0.95;;;26.00;92.20;;;;;;6216401;22;20026;-83
2023/07/30 07:08:46;;;;;;;2.08;0.88;;;26.20;91.10;;;;;;6216149;22;20034;-82
2023/07/30 07:11:13;;;;;;;1.52;0.77;;;26.40;90.60;;;;;;6216281;22;20024;-82
2023/07/30 07:13:40;;;;;;;2.55;0.70;;;26.60;91.10;;;;;;6219103;22;20034;-82
2023/07/30 07:16:07;;;;;;;1.38;0.68;;;26.30;89.90;;;;;;6241496;22;20069;-83
2023/07/30 07:18:34;;;;;;;1.77;0.77;;;26.00;88.70;;;;;;6240509;22;20054;-84
2023/07/30 07:21:01;;;;;;;1.75;0.90;;;25.90;90.10;;;;;;6214508;22;20023;-82
2023/07/30 07:23:28;;;;;;;2.03;0.80;;;25.80;89.70;;;;;;6215859;22;20030;-84
2023/07/30 07:25:56;;;;;;;2.72;1.05;;;25.40;90.00;;;;;;6215811;22;20024;-82
2023/07/30 07:28:23;;;;;;;1.38;0.50;;;25.30;90.60;;;;;;6216621;22;20078;-83
2023/07/30 07:30:50;;;;;;;1.30;0.70;;;25.10;91.30;;;;;;6216704;22;20015;-82
2023/07/30 07:33:17;;;;;;;1.83;0.82;;;25.00;91.70;;;;;;6219209;22;20049;-82
2023/07/30 07:35:44;;;;;;;1.58;0.77;;;24.90;92.30;;;;;;6241851;22;20024;-81
2023/07/30 07:38:11;;;;;;;2.83;0.98;;;24.80;93.00;;;;;;6219593;22;20090;-83
2023/07/30 07:40:42;;;;;;;1.98;0.85;;;24.70;92.60;;;;;;6217016;22;20074;-82
2023/07/30 07:43:09;;;;;;;1.35;0.75;;;24.60;93.10;;;;;;6216421;22;20442;-81
2023/07/30 07:45:36;;;;;;;2.38;0.93;;;24.60;93.10;;;;;;6216425;22;20024;-82
2023/07/30 07:48:03;;;;;;;2.05;1.00;;;24.60;92.90;;;;;;6219687;22;20364;-83
2023/07/30 07:50:30;;;;;;;2.17;0.75;;;24.60;93.00;;;;;;6241516;22;20015;-83
2023/07/30 07:52:57;;;;;;;2.05;0.85;;;24.50;93.00;;;;;;6220383;22;20019;-83
2023/07/30 07:55:24;;;;;;;1.67;0.90;;;24.50;93.00;;;;;;6222553;22;20333;-81
2023/07/30 07:57:51;;;;;;;1.63;0.70;;;24.40;94.30;;;;;;6215044;22;20082;-81
2023/07/30 08:00:21;;;;;;;3.08;0.82;;;24.30;95.50;;;;;;6220359;22;20061;-82
2023/07/30 08:02:49;;;;;;;2.63;0.90;;;24.30;96.60;;;;;;6218986;22;20026;-82
2023/07/30 08:05:19;;;;;;;1.75;0.85;;;24.20;98.50;;;;;;6216948;22;20027;-80
2023/07/30 08:07:47;;;;;;;2.13;0.75;;;24.20;99.90;;;;;;6216005;22;20093;-82
2023/07/30 08:10:14;;;;;;;2.00;0.70;;;24.20;99.90;;;;;;6216334;22;20020;-80
2023/07/30 08:12:42;;;;;;;1.60;1.25;;;24.10;99.90;;;;;;6242324;22;20085;-81
2023/07/30 08:15:09;;;;;;;2.80;1.20;;;24.10;99.90;;;;;;6216002;22;20117;-81
2023/07/30 08:17:37;;;;;;;2.58;0.80;;;24.10;99.90;;;;;;6243815;22;20023;-80
2023/07/30 08:20:04;;;;;;;2.30;0.70;;;24.10;99.90;;;;;;6240102;22;20511;-80
2023/07/30 08:22:33;;;;;;;1.65;0.98;;;24.00;99.90;;;;;;6242396;22;20020;-81
2023/07/30 08:25:01;;;;;;;4.70;1.27;;;23.80;99.90;;;;;;6216184;22;20062;-80
2023/07/30 08:27:28;;;;;;;3.60;1.15;;;23.60;99.90;;;;;;6244151;22;20058;-81
2023/07/30 08:29:55;;;;;;;2.72;0.95;;;23.60;99.90;;;;;;6214788;22;20024;-78
2023/07/30 08:32:22;;;;;;;1.45;0.70;;;23.50;99.90;;;;;;6241300;22;20034;-81
2023/07/30 08:34:49;;;;;;;2.53;1.00;;;23.50;99.90;;;;;;6241925;22;20019;-82
2023/07/30 08:37:17;;;;;;;1.73;0.90;;;23.40;99.90;;;;;;6241137;22;20047;-80
2023/07/30 08:39:44;;;;;;;2.28;1.10;;;23.40;99.90;;;;;;6245529;22;20023;-81
2023/07/30 08:42:15;;;;;;;1.60;0.90;;;23.40;99.90;;;;;;6241202;22;20162;-80
2023/07/30 08:44:42;;;;;;;1.90;1.20;;;23.40;99.90;;;;;;6267700;22;20089;-80
2023/07/30 08:47:10;;;;;;;2.63;1.10;;;23.30;99.90;;;;;;6220785;22;20024;-82
2023/07/30 08:49:37;;;;;;;2.08;0.90;;;23.30;99.90;;;;;;6215397;22;20084;-81
2023/07/30 08:52:09;;;;;;;2.97;0.93;;;23.20;99.90;;;;;;6240995;22;20119;-81
2023/07/30 08:54:38;;;;;;;1.77;0.80;;;23.20;99.90;;;;;;6241250;22;20031;-81
2023/07/30 08:57:06;;;;;;;3.05;0.95;;;23.30;99.90;;;;;;6215178;22;20023;-82
2023/07/30 08:59:42;;;;;;;2.60;1.05;;;23.30;99.90;;;;;;6241734;22;20054;-80
2023/07/30 09:02:18;;;;;;;3.70;1.30;;;23.20;99.90;;;;;;6215719;22;20026;-80
2023/07/30 09:04:48;;;;;;;2.22;1.00;;;23.00;99.90;;;;;;6218297;22;20055;-80
2023/07/30 09:07:16;;;;;;;3.28;1.23;;;23.00;99.90;;;;;;6243785;22;20028;-80
2023/07/30 09:09:44;;;;;;;1.95;0.88;;;23.00;99.90;;;;;;6241564;22;20066;-81
2023/07/30 09:12:14;;;;;;;2.63;0.90;;;23.00;99.90;;;;;;6219772;22;20024;-81
2023/07/30 09:14:48;;;;;;;2.65;0.93;;;23.00;99.90;;;;;;6216559;22;20067;-79
2023/07/30 09:17:19;;;;;;;1.88;0.70;;;22.90;99.90;;;;;;6268199;22;20019;-79
2023/07/30 09:19:50;;;;;;;2.10;1.00;;;22.90;99.90;;;;;;6215591;22;20053;-78
2023/07/30 09:22:28;;;;;;;1.33;0.68;;;22.90;99.90;;;;;;6242412;22;20027;-78
2023/07/30 09:24:56;;;;;;;2.75;0.70;;;22.90;99.90;;;;;;6243082;22;20028;-78
2023/07/30 09:27:26;;;;;;;2.38;1.00;;;23.00;99.90;;;;;;6243369;22;20435;-79
2023/07/30 09:29:54;;;;;;;2.60;1.30;;;23.00;99.90;;;;;;6239876;22;20016;-80
2023/07/30 09:32:29;;;;;;;2.10;0.90;;;23.00;99.90;;;;;;6238889;22;20015;-80
2023/07/30 09:35:08;;;;;;;2.17;1.00;;;23.00;99.90;;;;;;6213335;22;20099;-80
2023/07/30 09:37:40;;;;;;;1.67;0.93;;;22.90;99.90;;;;;;6213884;22;20222;-81
2023/07/30 09:40:12;;;;;;;2.80;1.20;;;22.90;99.90;;;;;;6213336;22;20024;-81
2023/07/30 09:42:46;;;;;;;3.08;0.80;;;22.90;99.90;;;;;;6239623;22;20023;-82
2023/07/30 09:45:24;;;;;;;2.88;1.15;;;22.90;99.90;;;;;;6215432;22;20085;-82
2023/07/30 09:47:57;;;;;;;1.50;0.75;;;22.90;99.90;;;;;;6242293;22;20047;-82
2023/07/30 09:53:48;;;;;;;2.80;1.10;;;22.80;99.90;;;;;;6286219;22;20054;-83
2023/07/30 09:56:21;;;;;;;3.58;1.10;;;22.90;99.90;;;;;;6245832;22;20023;-83
2023/07/30 09:58:49;;;;;;;4.50;2.28;;;22.90;99.90;;;;;;6269256;22;20042;-83
2023/07/30 10:12:19;;;;;;;4.00;2.25;;;22.80;99.90;;;;;;6269540;22;20041;-83
2023/07/30 10:18:54;;;;;;;3.42;1.65;;;22.70;99.90;;;;;;6284329;22;20030;-83
2023/07/30 10:21:51;;;;;;;3.65;1.23;;;22.70;99.90;;;;;;6260443;22;20058;-83
2023/07/30 10:24:18;;;;;;;2.83;1.20;;;22.80;99.90;;;;;;6247905;22;20137;-83
2023/07/30 10:26:47;;;;;;;2.95;1.85;;;22.90;99.90;;;;;;6272979;22;20409;-83
2023/07/30 10:33:01;;;;;;;5.65;3.17;;;22.80;99.90;;;;;;6289196;22;20085;-83
2023/07/30 10:35:39;;;;;;;5.03;3.08;;;22.90;99.90;;;;;;6193725;23;20021;-84
2023/07/30 10:38:27;;;;;;;3.30;1.50;;;22.90;99.90;;;;;;6145464;23;20060;-84
2023/07/30 10:41:06;;;;;;;3.75;1.48;;;22.80;99.90;;;;;;6124123;23;20327;-84
2023/07/30 10:43:41;;;;;;;2.42;1.40;;;22.70;99.90;;;;;;6127569;23;20029;-85
2023/07/30 10:46:13;;;;;;;2.85;1.17;;;22.70;99.90;;;;;;6128604;23;20025;-85
2023/07/30 10:48:43;;;;;;;2.97;1.50;;;22.80;99.90;;;;;;6148516;23;20107;-84
2023/07/30 10:51:16;;;;;;;3.25;1.40;;;22.90;99.90;;;;;;6088604;23;20018;-84
2023/07/30 10:53:49;;;;;;;3.45;1.27;;;22.80;99.90;;;;;;6085799;23;20483;-84
2023/07/30 10:56:24;;;;;;;4.00;1.55;;;22.90;99.90;;;;;;6085797;23;20023;-84
2023/07/30 10:58:53;;;;;;;5.28;1.92;;;22.90;99.90;;;;;;6089077;23;20105;-84
2023/07/30 11:01:26;;;;;;;3.40;1.77;;;22.90;99.90;;;;;;6086883;23;20022;-84
2023/07/30 11:03:56;;;;;;;4.30;2.15;;;22.90;99.90;;;;;;6087322;23;20022;-83
2023/07/30 11:06:25;;;;;;;4.72;2.03;;;23.00;99.90;;;;;;6124136;23;20032;-84
2023/07/30 11:08:54;;;;;;;4.25;1.73;;;23.00;99.90;;;;;;6161934;23;20046;-84
2023/07/30 11:11:25;;;;;;;3.45;2.05;;;23.10;99.90;;;;;;6157481;23;20017;-85
2023/07/30 11:13:56;;;;;;;2.97;1.58;;;23.20;99.90;;;;;;6153328;23;20055;-85
2023/07/30 11:16:25;;;;;;;4.22;2.10;;;23.20;99.90;;;;;;6156591;23;20048;-85
2023/07/30 11:18:52;;;;;;;5.00;1.98;;;23.30;99.90;;;;;;6152884;23;20021;-85
2023/07/30 11:21:19;;;;;;;5.43;1.90;;;23.40;99.90;;;;;;6157653;23;20036;-85
2023/07/30 11:23:47;;;;;;;4.43;2.25;;;23.30;99.90;;;;;;6154084;23;20047;-85
2023/07/30 11:26:17;;;;;;;4.50;2.33;;;23.20;99.90;;;;;;6203436;23;20032;-85
2023/07/30 11:28:45;;;;;;;3.38;1.60;;;23.20;99.90;;;;;;6202395;22;20088;-85
2023/07/30 11:31:15;;;;;;;2.85;1.60;;;23.20;99.90;;;;;;6274785;22;20073;-85
2023/07/30 11:33:44;;;;;;;2.95;1.67;;;23.20;99.90;;;;;;6272989;22;20023;-85
2023/07/30 11:36:27;;;;;;;2.63;1.48;;;23.30;99.90;;;;;;6247529;22;20110;-85
2023/07/30 11:38:54;;;;;;;;;;;23.20;99.90;;;;;;6248895;22;20015;-84
2023/07/30 11:41:23;;;;;;;3.95;1.50;;;23.20;99.90;;;;;;6247898;22;19996;-84
2023/07/30 11:43:51;;;;;;;2.17;1.83;;;23.30;99.90;;;;;;6271807;22;20102;-83
2023/07/30 11:46:22;;;;;;;2.85;1.40;;;23.30;99.90;;;;;;6246659;22;20069;-84
2023/07/30 11:49:09;;;;;;;2.42;1.20;;;23.20;99.90;;;;;;6247039;22;20442;-84
2023/07/30 11:51:37;;;;;;;2.67;1.23;;;23.10;99.90;;;;;;6273657;22;20019;-84
2023/07/30 11:54:04;;;;;;;2.72;1.73;;;23.00;99.90;;;;;;6270902;22;20318;-83
2023/07/30 11:56:33;;;;;;;2.78;1.40;;;23.10;99.90;;;;;;6271159;22;20433;-83
2023/07/30 11:59:03;;;;;;;2.95;2.00;;;23.10;99.90;;;;;;6274219;22;20015;-83
2023/07/30 12:01:33;;;;;;;3.28;2.22;;;23.00;99.90;;;;;;6270808;22;20023;-84
2023/07/30 12:04:03;;;;;;;3.00;1.90;;;23.10;99.90;;;;;;6270693;22;20023;-83
2023/07/30 12:06:48;;;;;;;4.05;2.08;;;23.00;99.90;;;;;;6245308;22;20023;-83
2023/07/30 12:09:21;;;;;;;3.63;1.50;;;22.90;99.90;;;;;;6271290;22;20408;-82
2023/07/30 12:12:00;;;;;;;4.60;1.88;;;23.00;99.90;;;;;;6270965;22;20019;-80
2023/07/30 12:14:49;;;;;;;2.60;1.98;;;22.90;99.90;;;;;;6296438;22;20092;-84
2023/07/30 12:17:16;;;;;;;2.40;1.70;;;22.70;99.90;;;;;;6271790;22;20023;-81
2023/07/30 12:19:45;;;;;;;3.58;1.48;;;22.80;99.90;;;;;;6273047;22;20023;-82
2023/07/30 12:22:18;;;;;;;2.60;1.55;;;22.80;99.90;;;;;;6246681;22;20096;-83
2023/07/30 12:24:45;;;;;;;3.80;2.00;;;22.80;99.90;;;;;;6270731;22;20019;-83
2023/07/30 12:27:17;;;;;;;3.30;1.65;;;22.70;99.90;;;;;;6270520;22;20137;-83
2023/07/30 12:29:45;;;;;;;2.22;1.55;;;22.70;99.90;;;;;;6244498;22;20458;-82
2023/07/30 12:32:14;;;;;;;4.18;1.92;;;22.70;99.90;;;;;;6247581;22;20073;-82
2023/07/30 12:34:44;;;;;;;3.22;1.90;;;22.60;99.90;;;;;;6245655;22;20015;-83
2023/07/30 12:37:11;;;;;;;3.83;2.20;;;22.60;99.90;;;;;;6247489;22;20023;-84
2023/07/30 12:39:38;;;;;;;2.83;2.05;;;22.70;99.90;;;;;;6270545;22;20126;-82
2023/07/30 12:42:06;;;;;;;3.63;1.80;;;22.60;99.90;;;;;;6272585;22;20730;-81
2023/07/30 12:44:33;;;;;;;3.22;1.70;;;22.80;99.90;;;;;;6232456;23;20483;-81
2023/07/30 12:47:00;;;;;;;2.92;1.88;;;22.90;99.90;;;;;;6183324;23;20404;-81
2023/07/30 12:49:27;;;;;;;2.47;1.42;;;22.80;99.90;;;;;;6182446;23;20027;-80
2023/07/30 12:52:28;;;;;;;2.65;1.65;;;22.80;99.90;;;;;;6232843;23;20078;-82
2023/07/30 12:54:59;;;;;;;4.00;2.70;;;22.80;99.90;;;;;;6209781;23;20095;-82
2023/07/30 12:57:28;;;;;;;3.63;2.28;;;22.90;99.90;;;;;;6236195;23;20024;-80
2023/07/30 12:59:55;;;;;;;2.38;1.70;;;23.00;99.90;;;;;;6207115;23;20135;-80
2023/07/30 13:02:23;;;;;;;3.78;1.80;;;23.40;99.90;;;;;;6232662;23;20439;-83
2023/07/30 13:04:51;;;;;;;2.60;1.70;;;23.50;99.90;;;;;;6184259;23;20181;-83
2023/07/30 13:07:18;;;;;;;3.40;1.60;;;23.60;99.90;;;;;;6235198;23;20020;-83
2023/07/30 13:09:47;;;;;;;2.97;1.52;;;23.60;99.90;;;;;;6186723;23;20030;-82
2023/07/30 13:12:16;;;;;;;2.75;1.25;;;23.60;99.90;;;;;;6233398;23;20121;-83
2023/07/30 13:14:44;;;;;;;2.40;1.35;;;23.50;99.90;;;;;;6212452;23;20066;-83
2023/07/30 13:17:12;;;;;;;1.65;1.13;;;23.60;99.90;;;;;;6234955;23;20055;-83
2023/07/30 13:19:39;;;;;;;2.30;1.08;;;23.50;99.90;;;;;;6233692;23;20362;-83